Time;durP1;ratioP1;P1;durP2;ratioP2;P2;SDS_P1;SDS_P2;PMS_P1;PMS_P2;Temp;Humidity;BMP_temperature;BMP_pressure;BME280_temperature;BME280_humidity;BME280_pressure;Samples;Min_cycle;Max_cycle;Signal;HPM_P1;HPM_P2
2022/05/06 00:01:21;;;;;;;41.08;26.52;;;;;;;11.30;88.28;102310.53;5023463;28;20138;-70
2022/05/06 00:03:46;;;;;;;41.10;26.85;;;;;;;11.40;88.83;102314.78;5013275;28;20029;-69
2022/05/06 00:06:13;;;;;;;38.95;25.92;;;;;;;11.37;88.02;102318.75;5012983;28;20054;-69
2022/05/06 00:08:39;;;;;;;40.05;25.98;;;;;;;11.29;88.59;102310.72;5032878;28;20033;-70
2022/05/06 00:11:04;;;;;;;38.33;26.58;;;;;;;11.27;88.86;102310.91;5032352;28;20048;-70
2022/05/06 00:13:29;;;;;;;42.38;27.48;;;;;;;11.24;89.07;102311.31;5031632;28;20033;-70
2022/05/06 00:15:54;;;;;;;41.95;26.58;;;;;;;11.25;88.52;102321.13;5032820;28;20025;-70
2022/05/06 00:18:20;;;;;;;39.95;26.48;;;;;;;11.25;88.62;102328.41;5014468;28;20492;-70
2022/05/06 00:20:46;;;;;;;38.78;25.80;;;;;;;11.27;88.24;102323.63;5013040;28;20030;-69
2022/05/06 00:23:11;;;;;;;39.85;25.25;;;;;;;11.28;88.49;102322.63;5011938;28;20041;-69
2022/05/06 00:25:36;;;;;;;41.55;25.75;;;;;;;11.24;88.63;102329.44;5011664;28;20055;-70
2022/05/06 00:28:03;;;;;;;39.88;25.70;;;;;;;11.22;88.79;102326.06;5027307;28;20465;-70
2022/05/06 00:30:29;;;;;;;40.33;26.70;;;;;;;11.17;88.90;102324.81;5032312;28;20108;-70
2022/05/06 00:32:54;;;;;;;38.33;26.85;;;;;;;11.15;89.46;102326.84;5032901;28;20104;-70
2022/05/06 00:35:19;;;;;;;35.88;25.50;;;;;;;11.14;88.55;102327.91;5032317;28;20034;-68
2022/05/06 00:37:45;;;;;;;36.30;25.05;;;;;;;11.20;88.56;102330.84;5018467;28;20065;-68
2022/05/06 00:40:13;;;;;;;39.15;26.10;;;;;;;11.13;88.36;102326.22;5012474;28;20111;-69
2022/05/06 00:42:38;;;;;;;37.97;25.52;;;;;;;11.09;88.41;102327.63;5011629;28;20034;-69
2022/05/06 00:45:05;;;;;;;37.10;25.60;;;;;;;11.06;88.96;102328.00;5011020;28;20088;-68
2022/05/06 00:47:33;;;;;;;40.88;26.60;;;;;;;10.95;89.01;102325.81;5021537;28;20492;-70
2022/05/06 00:50:00;;;;;;;41.72;27.15;;;;;;;10.91;89.88;102329.91;5032015;28;20045;-70
2022/05/06 00:52:25;;;;;;;40.70;26.63;;;;;;;10.91;89.14;102319.09;5032424;28;20030;-70
2022/05/06 00:54:51;;;;;;;40.70;26.52;;;;;;;10.79;90.40;102316.88;5032400;28;20025;-69
2022/05/06 00:57:17;;;;;;;38.58;26.55;;;;;;;10.87;90.31;102324.06;5023277;28;20461;-69
2022/05/06 01:02:26;;;;;;;43.25;27.00;;;;;;;10.81;89.83;102324.81;5009172;28;20084;-69
2022/05/06 01:04:52;;;;;;;38.63;26.73;;;;;;;10.78;90.21;102326.03;5027777;28;20054;-70
2022/05/06 01:07:19;;;;;;;39.25;26.80;;;;;;;10.75;89.45;102329.13;5020193;28;20053;-70
2022/05/06 01:09:44;;;;;;;39.95;26.23;;;;;;;10.76;89.62;102332.66;5031897;28;20488;-70
2022/05/06 01:12:10;;;;;;;38.90;26.73;;;;;;;10.78;89.49;102328.75;5032009;28;20030;-70
2022/05/06 01:14:35;;;;;;;40.38;27.10;;;;;;;10.70;89.88;102326.13;5032267;28;20117;-71
2022/05/06 01:17:01;;;;;;;37.25;26.30;;;;;;;10.70;90.29;102328.84;5025985;28;20160;-71
2022/05/06 01:19:26;;;;;;;37.10;27.13;;;;;;;10.67;89.83;102321.09;5012320;28;20053;-70
2022/05/06 01:21:53;;;;;;;39.85;26.90;;;;;;;10.64;90.96;102324.19;5012390;28;20034;-70
2022/05/06 01:24:19;;;;;;;40.38;27.13;;;;;;;10.58;90.58;102325.78;5012223;28;20038;-70
2022/05/06 01:27:04;;;;;;;39.60;25.40;;;;;;;10.62;90.60;102329.78;5015196;28;20075;-70
2022/05/06 01:29:31;;;;;;;38.78;26.70;;;;;;;10.53;90.94;102328.22;5031759;28;20033;-70
2022/05/06 01:31:57;;;;;;;39.35;26.55;;;;;;;10.48;90.67;102325.25;5031978;28;20087;-69
2022/05/06 01:34:26;;;;;;;42.15;27.48;;;;;;;10.38;91.03;102339.03;5033911;28;20037;-70
2022/05/06 01:36:54;;;;;;;40.63;26.80;;;;;;;10.33;91.82;102338.78;5031644;28;20041;-69
2022/05/06 01:39:25;;;;;;;41.85;28.10;;;;;;;10.28;92.32;102335.75;5015678;28;20069;-70
2022/05/06 01:41:53;;;;;;;42.53;27.20;;;;;;;10.27;92.53;102334.91;5015944;28;20529;-70
2022/05/06 01:44:21;;;;;;;80.90;29.63;;;;;;;10.13;92.29;102329.50;5015558;28;20022;-69
2022/05/06 01:46:46;;;;;;;55.08;28.25;;;;;;;10.05;93.35;102333.13;5018245;28;20025;-69
2022/05/06 01:49:14;;;;;;;55.35;30.80;;;;;;;9.98;93.72;102335.75;5035348;28;20539;-70
2022/05/06 01:51:41;;;;;;;118.72;29.15;;;;;;;9.91;93.49;102332.91;5035419;28;20025;-69
2022/05/06 01:54:07;;;;;;;81.10;30.02;;;;;;;9.87;93.93;102333.47;5035169;28;20064;-70
2022/05/06 01:56:33;;;;;;;139.82;28.55;;;;;;;9.78;94.21;102332.72;5032863;28;20120;-70
2022/05/06 01:58:58;;;;;;;142.70;27.63;;;;;;;9.68;94.73;102340.25;5015516;28;20428;-70
2022/05/06 02:01:23;;;;;;;176.95;27.38;;;;;;;9.56;95.05;102337.13;5012907;28;20481;-69
2022/05/06 02:06:32;;;;;;;111.97;29.67;;;;;;;9.49;96.33;102341.59;5015821;28;20501;-69
2022/05/06 02:08:58;;;;;;;145.57;31.05;;;;;;;9.50;96.39;102343.28;5035060;28;20116;-70
2022/05/06 02:11:23;;;;;;;283.30;32.53;;;;;;;9.46;95.79;102328.44;5034839;28;20052;-70
2022/05/06 02:13:49;;;;;;;225.30;29.40;;;;;;;9.38;96.40;102334.75;5034748;28;20083;-70
2022/05/06 02:16:16;;;;;;;171.30;31.02;;;;;;;9.34;97.08;102328.84;5034736;28;20033;-70
2022/05/06 02:18:42;;;;;;;189.63;30.52;;;;;;;9.30;97.39;102332.09;5016129;28;20535;-70
2022/05/06 02:21:07;;;;;;;130.65;30.45;;;;;;;9.24;97.64;102330.97;5015185;28;20381;-72
2022/05/06 02:23:32;;;;;;;170.38;31.05;;;;;;;9.17;98.14;102338.09;5012986;28;20030;-68
2022/05/06 02:25:58;;;;;;;123.72;31.42;;;;;;;9.18;97.51;102329.00;5014367;28;20044;-69
2022/05/06 02:28:23;;;;;;;125.85;31.02;;;;;;;9.14;98.59;102333.06;5013480;28;20030;-69
2022/05/06 02:33:32;;;;;;;172.40;30.70;;;;;;;9.09;98.39;102332.75;5010653;28;20057;-69
2022/05/06 02:35:59;;;;;;;124.72;30.00;;;;;;;9.08;98.12;102344.59;5014857;28;20037;-75
2022/05/06 02:38:25;;;;;;;123.75;30.33;;;;;;;9.03;99.03;102340.53;5013395;28;20042;-69
2022/05/06 02:40:51;;;;;;;108.97;29.65;;;;;;;9.16;99.62;102341.81;5013282;28;20036;-69
2022/05/06 02:43:17;;;;;;;133.57;29.50;;;;;;;9.08;99.24;102336.47;5014482;28;20037;-69
2022/05/06 02:45:43;;;;;;;100.90;28.65;;;;;;;9.05;98.16;102345.78;5020160;28;20057;-68
2022/05/06 02:48:08;;;;;;;106.85;26.38;;;;;;;9.02;98.43;102357.75;5034147;28;20122;-68
2022/05/06 02:50:34;;;;;;;141.85;27.17;;;;;;;8.90;98.34;102345.69;5034355;28;20025;-68
2022/05/06 02:53:00;;;;;;;136.73;26.38;;;;;;;8.87;98.29;102348.72;5034364;28;20445;-68
2022/05/06 02:55:25;;;;;;;61.95;24.35;;;;;;;8.85;98.56;102348.09;5033317;28;20039;-68
2022/05/06 02:57:51;;;;;;;62.05;24.50;;;;;;;8.84;98.32;102355.31;5033283;28;20045;-68
2022/05/06 03:00:17;;;;;;;108.68;25.27;;;;;;;8.84;98.82;102354.50;5033974;28;20056;-68
2022/05/06 03:02:42;;;;;;;41.42;25.83;;;;;;;8.91;99.33;102344.69;5016502;28;20076;-69
2022/05/06 03:05:08;;;;;;;67.85;24.52;;;;;;;8.93;98.25;102347.19;5014520;28;20030;-69
2022/05/06 03:07:33;;;;;;;123.35;25.98;;;;;;;8.89;99.34;102341.28;5014320;28;20061;-68
2022/05/06 03:09:58;;;;;;;113.70;23.30;;;;;;;8.90;98.49;102342.16;5014240;28;20030;-68
2022/05/06 03:12:26;;;;;;;204.40;23.92;;;;;;;8.78;98.34;102341.69;5014267;28;20483;-67
2022/05/06 03:14:53;;;;;;;124.18;23.40;;;;;;;8.74;99.81;102340.38;5014188;28;20022;-68
2022/05/06 03:17:18;;;;;;;107.60;24.25;;;;;;;8.73;99.68;102344.09;5032245;28;20033;-68
2022/05/06 03:19:44;;;;;;;138.98;24.45;;;;;;;8.74;99.47;102335.81;5033754;28;20099;-68
2022/05/06 03:22:09;;;;;;;115.07;23.33;;;;;;;8.83;99.63;102342.00;5033611;28;20027;-69
2022/05/06 03:24:35;;;;;;;83.05;24.42;;;;;;;8.90;100.00;102340.28;5033495;28;20029;-68
2022/05/06 03:27:00;;;;;;;92.65;23.52;;;;;;;8.93;99.25;102339.94;5017161;28;20113;-69
2022/05/06 03:29:25;;;;;;;128.57;23.13;;;;;;;8.92;99.51;102340.09;5013595;28;20065;-68
2022/05/06 03:31:52;;;;;;;72.75;21.75;;;;;;;8.90;99.16;102342.16;5013892;28;20042;-68
2022/05/06 03:34:19;;;;;;;141.02;23.80;;;;;;;8.84;99.13;102336.44;5013559;28;20052;-69
2022/05/06 03:36:45;;;;;;;67.78;23.30;;;;;;;8.93;99.81;102339.94;5027360;28;20101;-69
2022/05/06 03:39:11;;;;;;;86.63;23.70;;;;;;;8.93;100.00;102341.78;5033281;28;20117;-69
2022/05/06 03:41:36;;;;;;;112.35;23.58;;;;;;;8.90;100.00;102348.38;5033386;28;20029;-68
2022/05/06 03:44:02;;;;;;;90.85;23.35;;;;;;;8.88;99.42;102339.63;5033436;28;20144;-68
2022/05/06 03:46:27;;;;;;;158.75;23.10;;;;;;;8.75;99.67;102328.56;5032376;28;20083;-68
2022/05/06 03:48:52;;;;;;;125.38;23.05;;;;;;;8.76;100.00;102341.88;5033162;28;20472;-68
2022/05/06 03:51:20;;;;;;;103.05;22.85;;;;;;;8.82;100.00;102340.34;5031836;28;20029;-69
2022/05/06 03:53:49;;;;;;;63.40;21.15;;;;;;;8.84;100.00;102341.00;5033342;28;20376;-68
2022/05/06 03:56:15;;;;;;;123.10;21.70;;;;;;;8.80;100.00;102343.22;5022852;28;20458;-69
2022/05/06 03:58:40;;;;;;;95.60;21.63;;;;;;;8.82;100.00;102340.34;5013258;28;20054;-68
2022/05/06 04:01:09;;;;;;;96.30;21.52;;;;;;;8.86;100.00;102337.09;5009900;28;20111;-68
2022/05/06 04:03:35;;;;;;;87.40;20.58;;;;;;;8.87;100.00;102348.72;5013336;28;20496;-69
2022/05/06 04:06:00;;;;;;;48.10;20.33;;;;;;;8.96;100.00;102347.66;5018744;28;20045;-68
2022/05/06 04:08:26;;;;;;;178.65;20.10;;;;;;;8.84;100.00;102338.28;5032695;28;20476;-69
2022/05/06 04:10:51;;;;;;;129.57;20.02;;;;;;;8.84;100.00;102349.91;5032983;28;20026;-69
2022/05/06 04:13:19;;;;;;;127.03;20.42;;;;;;;8.80;99.79;102343.22;5029488;28;20029;-68
2022/05/06 04:15:45;;;;;;;71.82;20.95;;;;;;;8.81;100.00;102346.75;5032868;28;20061;-69
2022/05/06 04:18:12;;;;;;;48.30;20.65;;;;;;;8.83;100.00;102352.81;5032498;28;20029;-68
2022/05/06 04:23:30;;;;;;;144.18;21.88;;;;;;;8.93;100.00;102342.63;5016035;28;20108;-68
2022/05/06 04:26:07;;;;;;;102.68;18.50;;;;;;;9.01;99.41;102350.69;5012958;28;20033;-69
2022/05/06 04:28:33;;;;;;;83.28;18.08;;;;;;;8.84;99.98;102357.19;5012349;28;20033;-68
2022/05/06 04:30:58;;;;;;;105.00;19.63;;;;;;;8.84;99.86;102355.31;5012766;28;20492;-68
2022/05/06 04:33:25;;;;;;;80.05;19.17;;;;;;;8.84;100.00;102359.88;5028547;28;20038;-68
2022/05/06 04:35:51;;;;;;;70.82;20.08;;;;;;;8.87;100.00;102354.13;5031275;28;20034;-69
2022/05/06 04:38:16;;;;;;;130.05;20.80;;;;;;;8.87;100.00;102362.22;5032328;28;20029;-68
2022/05/06 04:40:42;;;;;;;59.13;19.80;;;;;;;8.99;100.00;102360.81;5032233;28;20040;-68
2022/05/06 04:43:08;;;;;;;77.38;20.05;;;;;;;9.04;100.00;102362.97;5031472;28;20476;-68
2022/05/06 04:45:41;;;;;;;98.22;19.33;;;;;;;9.07;100.00;102362.63;5032336;28;20037;-69
2022/05/06 04:48:07;;;;;;;64.65;20.35;;;;;;;9.02;100.00;102362.34;5032352;28;20040;-69
2022/05/06 04:50:34;;;;;;;74.38;21.30;;;;;;;9.04;100.00;102371.09;5032260;28;20111;-69
2022/05/06 04:52:59;;;;;;;50.00;20.75;;;;;;;9.02;100.00;102371.25;5020846;28;20061;-68
2022/05/06 04:55:24;;;;;;;38.65;20.45;;;;;;;8.96;100.00;102374.66;5012509;28;20058;-68
2022/05/06 04:57:49;;;;;;;51.17;19.50;;;;;;;8.98;100.00;102378.06;5012334;28;20057;-69
2022/05/06 05:00:15;;;;;;;37.35;19.90;;;;;;;9.05;100.00;102375.47;5012485;28;20055;-68
2022/05/06 05:02:41;;;;;;;48.05;20.42;;;;;;;9.08;100.00;102382.38;5017571;28;20408;-69
2022/05/06 05:05:06;;;;;;;34.05;20.65;;;;;;;9.17;100.00;102381.31;5032224;28;20384;-69
2022/05/06 05:07:32;;;;;;;42.65;20.63;;;;;;;9.23;100.00;102386.00;5031963;28;20074;-68
2022/05/06 05:09:57;;;;;;;54.88;19.90;;;;;;;9.18;100.00;102386.53;5035090;28;20026;-69
2022/05/06 05:12:24;;;;;;;79.60;21.45;;;;;;;9.07;99.75;102392.31;5029877;28;20030;-69
2022/05/06 05:14:49;;;;;;;39.60;20.92;;;;;;;9.10;100.00;102391.16;5016422;28;20061;-68
2022/05/06 05:17:15;;;;;;;47.47;20.55;;;;;;;9.12;100.00;102399.91;5015988;28;20053;-69
2022/05/06 05:19:40;;;;;;;57.28;21.17;;;;;;;9.17;100.00;102397.53;5016351;28;20113;-68
2022/05/06 05:22:06;;;;;;;61.08;20.23;;;;;;;9.21;100.00;102401.56;5019321;28;20036;-68
2022/05/06 05:24:31;;;;;;;75.90;20.67;;;;;;;9.18;100.00;102399.22;5035764;28;20090;-67
2022/05/06 05:26:57;;;;;;;75.65;19.33;;;;;;;9.23;100.00;102402.22;5035934;28;20037;-68
2022/05/06 05:29:23;;;;;;;94.15;20.42;;;;;;;9.17;100.00;102403.75;5034306;28;20033;-75
2022/05/06 05:31:49;;;;;;;74.35;20.92;;;;;;;9.14;100.00;102397.88;5034818;28;20040;-71
2022/05/06 05:34:14;;;;;;;80.82;22.55;;;;;;;9.16;100.00;102391.28;5015886;28;20022;-70
2022/05/06 05:36:40;;;;;;;47.55;21.80;;;;;;;9.22;100.00;102384.31;5015922;28;20042;-72
2022/05/06 05:39:05;;;;;;;102.07;23.67;;;;;;;9.20;100.00;102389.06;5014784;28;20040;-71
2022/05/06 05:41:32;;;;;;;88.43;23.38;;;;;;;9.20;100.00;102391.75;5015432;28;20113;-73
2022/05/06 05:49:26;;;;;;;82.40;23.77;;;;;;;9.17;100.00;102403.75;5034998;28;20114;-70
2022/05/06 05:51:52;;;;;;;92.55;25.33;;;;;;;9.17;100.00;102405.63;5034599;28;20477;-72
2022/05/06 05:54:17;;;;;;;69.80;26.63;;;;;;;9.21;100.00;102406.97;5015473;28;20030;-72
2022/05/06 05:56:42;;;;;;;73.47;25.02;;;;;;;9.22;100.00;102400.53;5014155;28;20026;-74
2022/05/06 05:59:07;;;;;;;62.25;25.30;;;;;;;9.22;100.00;102401.38;5015923;28;20034;-74
2022/05/06 06:01:33;;;;;;;55.60;25.95;;;;;;;9.31;100.00;102410.25;5010672;28;20441;-72
2022/05/06 06:03:58;;;;;;;53.42;27.10;;;;;;;9.38;100.00;102405.81;5032890;28;20052;-73
2022/05/06 06:06:23;;;;;;;91.65;27.25;;;;;;;9.43;100.00;102402.59;5034936;28;20132;-72
2022/05/06 06:08:48;;;;;;;97.20;24.15;;;;;;;9.46;100.00;102401.41;5035167;28;20022;-74
2022/05/06 06:11:14;;;;;;;88.10;25.33;;;;;;;9.46;100.00;102404.09;5035093;28;20425;-72
2022/05/06 06:13:39;;;;;;;57.63;26.92;;;;;;;9.49;100.00;102401.88;5019726;28;20040;-74
2022/05/06 06:16:05;;;;;;;90.45;29.38;;;;;;;9.54;100.00;102398.63;5015397;28;20037;-74
2022/05/06 06:18:30;;;;;;;80.00;28.38;;;;;;;9.56;100.00;102393.91;5014945;28;20034;-72
2022/05/06 06:20:56;;;;;;;51.75;28.27;;;;;;;9.67;100.00;102393.47;5013850;28;20025;-74
2022/05/06 06:23:22;;;;;;;94.95;28.83;;;;;;;9.68;100.00;102395.16;5027861;28;20095;-73
2022/05/06 06:25:48;;;;;;;78.15;30.50;;;;;;;9.69;100.00;102388.72;5034827;28;20030;-72
2022/05/06 06:28:14;;;;;;;121.00;31.10;;;;;;;9.66;100.00;102391.78;5034761;28;20091;-75
2022/05/06 06:30:40;;;;;;;92.55;31.63;;;;;;;9.69;100.00;102393.28;5034844;28;20039;-73
2022/05/06 06:33:06;;;;;;;68.20;30.58;;;;;;;9.70;100.00;102390.38;5023585;28;20049;-71
2022/05/06 06:35:31;;;;;;;115.13;32.42;;;;;;;9.70;100.00;102389.56;5014687;28;20034;-71
2022/05/06 06:37:57;;;;;;;76.55;29.52;;;;;;;9.73;100.00;102392.72;5014672;28;20030;-74
2022/05/06 06:40:22;;;;;;;91.65;30.60;;;;;;;9.73;100.00;102391.91;5013362;28;20038;-71
2022/05/06 06:42:47;;;;;;;68.47;30.88;;;;;;;9.79;100.00;102395.75;5022613;28;20025;-72
2022/05/06 06:45:13;;;;;;;65.28;31.65;;;;;;;9.86;100.00;102392.13;5034551;28;20044;-72
2022/05/06 06:47:39;;;;;;;56.80;32.10;;;;;;;9.98;100.00;102395.25;5034576;28;20461;-72
2022/05/06 06:50:05;;;;;;;102.78;31.15;;;;;;;9.99;100.00;102391.50;5034322;28;20029;-70
2022/05/06 06:52:30;;;;;;;71.75;31.55;;;;;;;10.03;100.00;102400.09;5028495;28;20034;-70
2022/05/06 06:54:57;;;;;;;57.25;32.28;;;;;;;10.08;100.00;102403.09;5014535;28;20088;-71
2022/05/06 06:57:23;;;;;;;80.95;31.05;;;;;;;10.11;100.00;102411.69;5014345;28;20064;-73
2022/05/06 06:59:48;;;;;;;66.63;33.22;;;;;;;10.08;100.00;102417.47;5014433;28;20461;-74
2022/05/06 07:02:13;;;;;;;61.95;32.80;;;;;;;10.15;100.00;102411.31;5013409;28;20050;-72
2022/05/06 07:04:39;;;;;;;51.17;28.27;;;;;;;10.20;100.00;102414.31;5032795;28;20064;-72
2022/05/06 07:12:32;;;;;;;47.20;27.52;;;;;;;10.03;100.00;102430.69;5027867;28;20201;-70
2022/05/06 07:14:57;;;;;;;50.42;28.70;;;;;;;9.99;100.00;102423.94;5013938;28;20121;-73
2022/05/06 07:17:23;;;;;;;51.85;28.85;;;;;;;10.11;100.00;102425.22;5012517;28;20460;-70
2022/05/06 07:19:48;;;;;;;47.88;27.73;;;;;;;10.20;100.00;102430.53;5014109;28;20030;-71
2022/05/06 07:22:14;;;;;;;49.45;27.15;;;;;;;10.17;100.00;102429.03;5016726;28;20037;-72
2022/05/06 07:24:39;;;;;;;48.67;26.38;;;;;;;10.09;100.00;102435.34;5033580;28;20057;-73
2022/05/06 07:27:05;;;;;;;42.47;26.38;;;;;;;10.07;100.00;102437.41;5033979;28;20179;-72
2022/05/06 07:29:31;;;;;;;48.10;27.02;;;;;;;10.10;100.00;102442.47;5031516;28;20084;-72
2022/05/06 07:31:57;;;;;;;49.00;27.50;;;;;;;10.15;100.00;102452.72;5032057;28;20444;-80
2022/05/06 07:34:22;;;;;;;53.90;28.70;;;;;;;10.21;100.00;102451.16;5028770;28;20064;-72
2022/05/06 07:36:47;;;;;;;49.28;28.10;;;;;;;10.23;100.00;102451.81;5025637;28;20029;-71
2022/05/06 07:39:14;;;;;;;52.63;28.48;;;;;;;10.22;100.00;102453.69;5013544;28;20030;-72
2022/05/06 07:41:41;;;;;;;52.97;30.30;;;;;;;10.27;100.00;102459.38;5014225;28;20087;-72
2022/05/06 07:44:07;;;;;;;50.53;29.63;;;;;;;10.24;100.00;102465.16;5013696;28;20077;-73
2022/05/06 07:46:32;;;;;;;50.58;28.95;;;;;;;10.22;100.00;102460.94;5013488;28;20228;-73
2022/05/06 07:48:58;;;;;;;56.53;30.02;;;;;;;10.18;100.00;102463.19;5013550;28;20453;-72
2022/05/06 07:51:24;;;;;;;50.53;29.15;;;;;;;10.23;100.00;102466.16;5017630;28;20025;-72
2022/05/06 07:53:51;;;;;;;49.13;29.67;;;;;;;10.30;100.00;102463.59;5013557;28;20087;-73
2022/05/06 07:56:20;;;;;;;55.63;31.58;;;;;;;10.36;100.00;102471.00;5016429;28;20085;-72
2022/05/06 07:58:45;;;;;;;51.33;30.88;;;;;;;10.38;100.00;102471.66;5032839;28;20068;-71
2022/05/06 08:01:12;;;;;;;52.00;30.08;;;;;;;10.40;100.00;102475.03;5020267;28;20065;-70
2022/05/06 08:06:21;;;;;;;51.10;32.03;;;;;;;10.39;100.00;102465.22;5013188;28;20076;-69
2022/05/06 08:08:46;;;;;;;49.90;31.55;;;;;;;10.46;100.00;102471.59;5012722;28;20458;-69
2022/05/06 08:11:11;;;;;;;48.53;30.27;;;;;;;10.48;100.00;102475.94;5020752;28;20148;-69
2022/05/06 08:13:38;;;;;;;48.00;30.45;;;;;;;10.49;100.00;102478.47;5032204;28;20060;-68
2022/05/06 08:16:03;;;;;;;50.10;30.10;;;;;;;10.59;100.00;102480.94;5022009;28;20037;-68
2022/05/06 08:18:29;;;;;;;52.15;30.70;;;;;;;10.67;100.00;102477.28;5014265;28;20374;-71
2022/05/06 08:20:54;;;;;;;48.42;29.80;;;;;;;10.72;100.00;102478.41;5027861;28;20037;-70
2022/05/06 08:23:23;;;;;;;49.08;31.80;;;;;;;10.76;100.00;102473.47;5011486;28;20037;-71
2022/05/06 08:25:52;;;;;;;50.97;31.40;;;;;;;10.89;100.00;102479.06;5012726;28;20077;-72
2022/05/06 08:28:19;;;;;;;50.50;30.98;;;;;;;10.98;100.00;102472.53;5012611;28;20118;-72
2022/05/06 08:30:49;;;;;;;46.47;29.88;;;;;;;11.03;100.00;102476.53;5011459;28;20489;-69
2022/05/06 08:33:14;;;;;;;45.88;30.10;;;;;;;11.04;100.00;102470.94;5011970;28;20084;-71
2022/05/06 08:35:44;;;;;;;46.83;29.98;;;;;;;11.06;100.00;102468.88;5031270;28;20033;-71
2022/05/06 08:38:09;;;;;;;49.35;30.63;;;;;;;11.10;100.00;102462.06;5019050;28;20113;-71
2022/05/06 08:40:38;;;;;;;43.38;28.45;;;;;;;11.24;100.00;102465.75;5012641;28;20126;-70
2022/05/06 08:43:04;;;;;;;44.30;29.10;;;;;;;11.44;100.00;102460.56;5012015;28;20038;-72
2022/05/06 08:51:02;;;;;;;43.13;27.38;;;;;;;11.69;98.47;102452.91;5032638;28;20080;-71
2022/05/06 08:53:39;;;;;;;38.55;27.90;;;;;;;11.82;98.53;102451.38;5032262;28;20044;-69
2022/05/06 08:56:05;;;;;;;40.30;27.52;;;;;;;11.85;97.19;102451.84;5022684;28;20038;-69
2022/05/06 08:58:34;;;;;;;39.92;27.55;;;;;;;11.93;96.76;102447.34;5010984;28;20121;-70
2022/05/06 09:01:02;;;;;;;39.35;26.63;;;;;;;11.97;96.22;102457.63;5009352;28;20037;-72
2022/05/06 09:03:27;;;;;;;34.92;25.17;;;;;;;12.04;95.75;102449.53;5012639;28;20045;-70
2022/05/06 09:05:54;;;;;;;35.58;24.77;;;;;;;12.20;95.63;102451.97;5019716;28;20128;-69
2022/05/06 09:08:21;;;;;;;36.75;24.48;;;;;;;12.33;95.56;102450.38;5032261;28;20133;-69
2022/05/06 09:11:03;;;;;;;33.63;24.15;;;;;;;12.43;94.90;102450.03;5032094;28;20030;-72
2022/05/06 09:13:29;;;;;;;39.38;24.83;;;;;;;12.46;94.17;102453.19;5031778;28;20034;-70
2022/05/06 09:19:22;;;;;;;32.97;23.90;;;;;;;12.64;93.60;102443.72;5012511;28;20061;-70
2022/05/06 09:22:09;;;;;;;37.50;23.70;;;;;;;12.69;92.97;102441.22;5012253;28;20038;-71
2022/05/06 09:24:37;;;;;;;34.40;24.17;;;;;;;12.65;92.33;102435.34;5011901;28;20105;-70
2022/05/06 09:27:05;;;;;;;33.60;23.70;;;;;;;12.64;92.19;102443.72;5028782;28;20041;-70
2022/05/06 09:29:33;;;;;;;30.15;21.90;;;;;;;12.75;92.74;102446.66;5031778;28;20052;-71
2022/05/06 09:32:19;;;;;;;33.15;23.63;;;;;;;12.81;91.88;102438.78;5030912;28;20037;-70
2022/05/06 09:35:04;;;;;;;30.67;22.17;;;;;;;12.69;91.95;102433.06;5030667;28;20037;-70
2022/05/06 09:37:30;;;;;;;30.95;20.20;;;;;;;12.76;91.42;102436.66;5012603;28;20461;-70
2022/05/06 09:40:07;;;;;;;28.63;20.42;;;;;;;12.88;91.61;102429.63;5011606;28;20116;-70
2022/05/06 09:42:33;;;;;;;26.10;18.90;;;;;;;12.96;90.45;102435.94;5010671;28;20045;-71
2022/05/06 09:44:59;;;;;;;36.50;21.65;;;;;;;13.09;91.96;102427.84;5008452;28;20037;-71
2022/05/06 09:47:25;;;;;;;34.92;21.38;;;;;;;13.22;90.99;102427.84;5013776;28;20477;-70
2022/05/06 09:49:52;;;;;;;36.75;21.75;;;;;;;13.27;90.23;102425.38;5022295;28;20040;-70
2022/05/06 09:52:17;;;;;;;36.78;19.48;;;;;;;13.40;90.37;102427.31;5012192;28;20350;-71
2022/05/06 09:54:44;;;;;;;32.63;19.88;;;;;;;13.55;90.06;102429.88;5012476;28;20033;-70
2022/05/06 09:57:12;;;;;;;28.98;18.75;;;;;;;13.64;89.16;102430.53;5014018;28;20037;-70
2022/05/06 09:59:37;;;;;;;29.30;19.42;;;;;;;13.69;88.67;102419.00;5030054;28;20038;-72
2022/05/06 10:02:08;;;;;;;29.02;19.35;;;;;;;13.77;87.79;102421.56;5011669;28;20041;-69
2022/05/06 10:04:37;;;;;;;23.63;16.58;;;;;;;13.92;87.29;102430.34;5015333;28;20098;-71
2022/05/06 10:07:06;;;;;;;25.67;16.33;;;;;;;13.91;86.38;102428.66;5000594;28;20054;-69
2022/05/06 10:09:37;;;;;;;21.05;15.60;;;;;;;14.05;85.27;102429.50;5010569;28;20038;-72
2022/05/06 10:12:05;;;;;;;21.67;14.40;;;;;;;14.11;83.80;102428.66;5000386;28;20062;-72
2022/05/06 10:14:32;;;;;;;19.15;13.07;;;;;;;14.18;82.73;102425.94;5014003;28;20038;-70
2022/05/06 10:16:58;;;;;;;18.05;13.23;;;;;;;14.20;82.75;102410.22;5015164;28;20516;-74
2022/05/06 10:19:49;;;;;;;17.02;12.60;;;;;;;14.35;84.08;102413.53;5014976;28;20039;-72
2022/05/06 10:22:14;;;;;;;19.50;13.68;;;;;;;14.40;83.07;102410.19;5011998;28;20046;-71
2022/05/06 10:24:43;;;;;;;22.08;12.63;;;;;;;14.45;82.29;102404.13;5014661;28;20096;-72
2022/05/06 10:33:16;;;;;;;15.02;10.93;;;;;;;14.76;78.86;102408.03;5014969;28;20401;-71
2022/05/06 10:35:43;;;;;;;10.63;8.57;;;;;;;14.90;79.11;102404.22;5014588;28;20029;-73
2022/05/06 10:38:17;;;;;;;14.35;7.47;;;;;;;15.04;77.84;102403.09;4997530;28;20116;-70
2022/05/06 10:40:58;;;;;;;9.63;7.80;;;;;;;15.15;76.40;102409.75;5014317;28;20029;-71
2022/05/06 10:43:39;;;;;;;9.80;7.82;;;;;;;15.27;76.48;102401.72;5014560;28;20084;-71
2022/05/06 10:46:04;;;;;;;14.13;8.57;;;;;;;15.20;74.08;102392.75;5014269;28;20392;-72
2022/05/06 10:48:29;;;;;;;13.40;9.25;;;;;;;15.22;74.54;102390.66;5014683;28;20033;-73
2022/05/06 10:51:24;;;;;;;12.07;9.38;;;;;;;15.35;76.86;102379.66;5014432;28;20033;-73
2022/05/06 10:53:51;;;;;;;11.95;9.57;;;;;;;15.54;74.06;102383.28;5014296;28;20029;-72
2022/05/06 10:56:16;;;;;;;11.32;8.93;;;;;;;15.64;73.57;102379.22;5014706;28;20104;-75
2022/05/06 10:58:42;;;;;;;12.00;8.13;;;;;;;15.68;71.28;102389.50;5013197;28;20550;-73
2022/05/06 11:01:17;;;;;;;9.05;7.65;;;;;;;15.82;72.27;102384.81;5010136;28;20553;-73
2022/05/06 11:03:52;;;;;;;11.05;7.22;;;;;;;15.97;71.49;102376.25;5014293;28;20048;-74
2022/05/06 11:06:24;;;;;;;8.88;6.95;;;;;;;16.04;68.84;102377.03;5013360;28;20077;-72
2022/05/06 11:08:50;;;;;;;11.73;8.00;;;;;;;16.20;69.83;102380.25;5014057;28;20076;-71
2022/05/06 11:11:17;;;;;;;12.02;8.23;;;;;;;16.30;69.14;102375.09;5012979;28;20033;-70
2022/05/06 11:13:45;;;;;;;11.88;9.00;;;;;;;16.34;68.32;102365.41;5013822;28;20030;-71
2022/05/06 11:16:12;;;;;;;10.05;7.88;;;;;;;16.50;66.66;102379.53;5014225;28;20462;-70
2022/05/06 11:18:45;;;;;;;9.98;7.32;;;;;;;16.56;67.31;102375.88;5013849;28;20041;-69
2022/05/06 11:21:24;;;;;;;15.45;8.43;;;;;;;16.72;68.73;102367.06;5014074;28;20030;-71
2022/05/06 11:23:50;;;;;;;13.05;8.48;;;;;;;16.73;65.62;102367.91;5013649;28;20037;-72
2022/05/06 11:26:26;;;;;;;9.05;6.97;;;;;;;16.79;63.99;102367.81;5014131;28;20425;-71
2022/05/06 11:29:04;;;;;;;7.93;6.28;;;;;;;16.93;65.17;102359.47;5013402;28;20030;-71
2022/05/06 11:31:30;;;;;;;9.95;6.80;;;;;;;17.07;62.83;102357.38;5013660;28;20037;-74
2022/05/06 11:34:15;;;;;;;9.27;7.55;;;;;;;17.14;64.30;102358.13;5014210;28;20030;-78
2022/05/06 11:36:47;;;;;;;7.88;6.40;;;;;;;17.20;61.08;102359.13;5013802;28;20054;-72
2022/05/06 11:39:13;;;;;;;9.98;7.25;;;;;;;17.21;60.61;102360.75;5013807;28;20221;-77
2022/05/06 11:41:38;;;;;;;21.50;8.13;;;;;;;17.25;61.17;102359.25;5012338;28;20057;-73
2022/05/06 11:44:05;;;;;;;10.82;8.10;;;;;;;17.26;62.39;102349.97;5013354;28;20018;-74
2022/05/06 11:49:29;;;;;;;11.32;8.30;;;;;;;17.48;62.20;102342.03;5013478;28;20036;-68
2022/05/06 11:51:56;;;;;;;11.80;7.50;;;;;;;17.52;59.14;102338.59;5013308;28;20073;-68